Airfield :
LOGIN :

Register | Disclaimer

   EN    FR    IT 

 










Legend :    VFR   Marginal VFR   IFR   Intensive IFR   Very Intensive IFR
Visi :
Ceiling :
>= 8 km
>= 3000ft
5 to 8 km
1000 to 3000 ft
1500m to 5 km
500 to 1000 ft
800 to 1500m
200 to 500 ft
< 800m
< 200 ft
Symbols :   Thunderstorms  Fog  Heavy snow  Heavy precipitations  Wind > 20 kt
SIGMETs :     Misc.  Thunderstorms  Icing  Turbulence  Mountain Waves  Volcanic Ashes






- Airport Elevation : 28 ft
- IATA code : HFA


LLHA - Haifa International

CURRENT METAR :
  • 150950Z 29008KT 9999 FEW030 31/22 Q1008

EXPIRED METARs :
  • 150850Z 26008KT 230V300 9999 FEW026 30/22 Q1008
  • 150750Z 26007KT 9999 SCT025 30/22 Q1009

TAF TAF LLHA
Valid from the 15 at 06:00 until the 16 at 06:00 UTC


150505Z 1506/1606 27006KT 9999 SCT020
TEMPO 1506/1507 6000 BKN015
BECMG 1507/1509 30010KT FEW020
BECMG 1516/1518 28005KT SCT015
BECMG 1600/1602 SCT020 TX31/1511Z TN24/1604Z
LLLL FIR / Asia



MET'MAP, your aeronautical weather chart ! - Copyright ORBIFLY December 2007 - Disclaimer

ORBIFLY MET'MAP TEAM :

Programming & Development : Alexandra Zaïnal
Concept & original design : Baudouin d'Aumeries
Assistance for programming : Marc-Olivier Méhu
Technical & hardware support : Manuel Goepfert

Contact : metmap@orbifly.com




SOURCES & CREDITS :

   NOAA